Terminal Aerodrome Forecast
Issued by NWS

Home | Current Version | Previous Version | Text Only | Print | Product List | Glossary On
Versions: 1 2 3 4 5 6 7 8 9 10 11 12 13 14 15
223
FTUS46 KSGX 270520
TAFCRQ
TAF
KCRQ 270520Z 2706/2806 VRB04KT P6SM FEW012 SCT250
     FM270800 17005KT P6SM BKN010
     FM271600 VRB04KT P6SM SCT015 SCT250
     FM271800 25009KT P6SM SCT250
     FM280200 VRB04KT P6SM SCT250=

USA.gov is the U.S. government's official web portal to all federal, state and local government web resources and services.